Decoded Metar for LERI (Alcantarilla in SPAIN) (IATA:N/A) | Meteo·Mobile Aviation Weather
aviador You're here:

LERI Decoded Metar

Alcantarilla in SPAIN
Report Time2018-09-20 08:00:00
UTC Time2018-09-20 08:24:09
Flight Rules vfr VFR
WindVRB at 02 kt
Visibility8000 m
Phenomena:N/A
Clouds:Few 020 Hf
Expected CloudBase > 1,200 ft AGL from Temp-Dew spread
CeilingNone
Temp23°C (ISA +8)
Dew Point20°C (83% RH)
QNH1021 hPa
Density Alt1,273 ft
Elevation246 ft
Report Wrong Elevation
Raw Report
LERI 200800Z VRB02KT 8000 FEW020 23/20 Q1021 NOSIG=

Extra information for LERI:More info

Metar Taf Metar & Taf Last 4 Metars F.Rules Stats Wind Profile Meteogram Temp Stats Airport Information Weather charts Add Link Nearby VenuesMetar ALERT Operation Metar Decoded Social comments

TOTANA, (Aeroclub Totana)